METAR AND TAF INFORMATION
METAR FOR VABB
ADDS - METARS form results

(2228 UTC 24 April 2018)
Data provider http://aviationweather.gov/adds/metars/
 
METAR text: VABB 242200Z 35003KT 3000 BR NSC 29/24 Q1007 NOSIG
Conditions at: VABB (BOMBAY/SANTACRUZ, IN) observed 2200 UTC 24 April 2018
Temperature: 29.0°C (84°F)
Dewpoint: 24.0°C (75°F) [RH = 74%]
Pressure (altimeter): 29.73 inches Hg (1007.0 mb)
Winds: from the N (350 degrees) at 3 MPH (3 knots; 1.6 m/s)
Visibility: 1.86 miles (2.99 km)
Ceiling: at least 12,000 feet AGL
Clouds: sky clear below 12,000 feet AGL
Weather: BR  (mist)

METAR text: VABB 242130Z 30005KT 3000 HZ NSC 29/24 Q1007 NOSIG
Conditions at: VABB (BOMBAY/SANTACRUZ, IN) observed 2130 UTC 24 April 2018
Temperature: 29.0°C (84°F)
Dewpoint: 24.0°C (75°F) [RH = 74%]
Pressure (altimeter): 29.73 inches Hg (1007.0 mb)
Winds: from the WNW (300 degrees) at 6 MPH (5 knots; 2.6 m/s)
Visibility: 1.86 miles (2.99 km)
Ceiling: at least 12,000 feet AGL
Clouds: sky clear below 12,000 feet AGL
Weather: HZ  (haze)

Forecast for: VABB (BOMBAY/SANTACRUZ, IN)
Text: TAF VABB 241700Z 2418/2524 33004KT 3000 BR HZ FEW020
Forecast period: 1800 UTC 24 April 2018 to 0000 UTC 25 April 2018
Forecast type: FROM: standard forecast or significant change
Winds: from the NNW (330 degrees) at 5 MPH (4 knots; 2.1 m/s)
Visibility: 1.86 miles (2.99 km)
Clouds: few clouds at 2000 feet AGL
Weather: BR HZ  (mist, haze)
Forecast for: VABB (BOMBAY/SANTACRUZ, IN)
Text: TAF VABB 241700Z 2418/2524 33004KT 3000 BR HZ FEW020
Forecast period: 1800 UTC 24 April 2018 to 0000 UTC 25 April 2018
Forecast type: FROM: standard forecast or significant change
Winds: from the NNW (330 degrees) at 5 MPH (4 knots; 2.1 m/s)
Visibility: 1.86 miles (2.99 km)
Clouds: few clouds at 2000 feet AGL
Weather: BR HZ  (mist, haze)
Forecast for: VABB (BOMBAY/SANTACRUZ, IN)
Text: TAF VABB 241700Z 2418/2524 33004KT 3000 BR HZ FEW020
Forecast period: 0000 to 0600 UTC 25 April 2018
Forecast type: BECOMING: Conditions expected to become as follows by 0200 UTC 25 April 2018
Winds: from the E (80 degrees) at 6 MPH (5 knots; 2.6 m/s)
Visibility: 1.86 miles (2.99 km)
Clouds: few clouds at 2000 feet AGL
Weather: BR HZ  (mist, haze)
Forecast for: VABB (BOMBAY/SANTACRUZ, IN)
Text: TAF VABB 241700Z 2418/2524 33004KT 3000 BR HZ FEW020
Forecast period: 0000 to 0600 UTC 25 April 2018
Forecast type: BECOMING: Conditions expected to become as follows by 0200 UTC 25 April 2018
Winds: from the E (80 degrees) at 6 MPH (5 knots; 2.6 m/s)
Visibility: 1.86 miles (2.99 km)
Clouds: few clouds at 2000 feet AGL
Weather: BR HZ  (mist, haze)
Forecast for: VABB (BOMBAY/SANTACRUZ, IN)
Text: TAF VABB 241700Z 2418/2524 33004KT 3000 BR HZ FEW020
Forecast period: 0600 to 1300 UTC 25 April 2018
Forecast type: BECOMING: Conditions expected to become as follows by 0800 UTC 25 April 2018
Winds: from the W (270 degrees) at 14 MPH (12 knots; 6.2 m/s)
Visibility: 3 miles (5 km)
Clouds: few clouds at 2000 feet AGL
Weather: FU  (smoke)
Forecast for: VABB (BOMBAY/SANTACRUZ, IN)
Text: TAF VABB 241700Z 2418/2524 33004KT 3000 BR HZ FEW020
Forecast period: 0600 to 1300 UTC 25 April 2018
Forecast type: BECOMING: Conditions expected to become as follows by 0800 UTC 25 April 2018
Winds: from the W (270 degrees) at 14 MPH (12 knots; 6.2 m/s)
Visibility: 3 miles (5 km)
Clouds: few clouds at 2000 feet AGL
Weather: FU  (smoke)
Forecast for: VABB (BOMBAY/SANTACRUZ, IN)
Text: TAF VABB 241700Z 2418/2524 33004KT 3000 BR HZ FEW020
Forecast period: 1300 UTC 25 April 2018 to 0000 UTC 26 April 2018
Forecast type: BECOMING: Conditions expected to become as follows by 1500 UTC 25 April 2018
Winds: from the NNW (330 degrees) at 6 MPH (5 knots; 2.6 m/s)
Visibility: 1.86 miles (2.99 km)
Clouds: few clouds at 2000 feet AGL
Weather: HZ  (haze)
Forecast for: VABB (BOMBAY/SANTACRUZ, IN)
Text: TAF VABB 241700Z 2418/2524 33004KT 3000 BR HZ FEW020
Forecast period: 1300 UTC 25 April 2018 to 0000 UTC 26 April 2018
Forecast type: BECOMING: Conditions expected to become as follows by 1500 UTC 25 April 2018
Winds: from the NNW (330 degrees) at 6 MPH (5 knots; 2.6 m/s)
Visibility: 1.86 miles (2.99 km)
Clouds: few clouds at 2000 feet AGL
Weather: HZ  (haze)

 AIRPORT MAP

 RUNWAY INFORMATION
Runway 09 Runway length 11302 ft Runway width 148 ft
Runway elevation 15 ft Runway displaced threshold 465 ft Runway heading 89
Runway 27 Runway length 11302 ft Runway width 148 ft
Runway elevation 22 ft Runway displaced threshold 1581 ft Runway heading 269
Runway 14 Runway length 9596 ft Runway width 150 ft
Runway elevation 37 ft Runway displaced threshold 1238 ft Runway heading 134
Runway 32 Runway length 9596 ft Runway width 150 ft
Runway elevation 26 ft Runway displaced threshold 853 ft Runway heading 314

 AIRPORT FREQUENCIES
Type ACC Name MUMBAI Frequency 120.5 MHZ
Type APP Name MUMBAI APP Frequency 127.9 MHZ
Type ATIS Name MUMBAI ATI Frequency 126.4 MHZ
Type CLD Name MUMBAI CLR Frequency 121.85 MHZ
Type GND Name MUMBAI GND Frequency 121.9 MHZ
Type RDO Name MUMBAI RDO Frequency 1008.4 MHZ
Type RDR Name RDR Frequency 119.3 MHZ
Type TWR Name MUMBAI TWR Frequency 118.1 MHZ

 AIRPORT NEAR NAVIGATION AIDS
Type VOR-DME Name Mumbai Frequency 116600 KHZ



Powered by Virtual Airlines Manager [v2.6.2]